CYDF/YDF METAR and TAF weather

Enter ICAO airport designator
Station Type Date Time Source
CYDF METAR 2019/02/23 22:00 UTC NOAA

CYDF 232200Z 25007KT 15SM SCT025 M13/M18 A3001 RMK SC4 SLP165


Station Type Date Time Source
CYDF Decoded METAR 2019/02/23 22:00 UTC NOAA

Deer Lake, Nfld., Canada (CYDF) 49-13N 057-24W 22M
Feb 23, 2019 - 05:00 PM EST / 2019.02.23 2200 UTC
Wind: from the WSW (250 degrees) at 8 MPH (7 KT):0
Visibility: 15 mile(s):0
Sky conditions: partly cloudy
Temperature: 8 F (-13 C)
Windchill: -4 F (-20 C):1
Dew Point: 0 F (-18 C)
Relative Humidity: 66%
Pressure (altimeter): 30.01 in. Hg (1016 hPa)
ob: CYDF 232200Z 25007KT 15SM SCT025 M13/M18 A3001 RMK SC4 SLP165
cycle: 22

Station Type Date Time Source
CYDF TAF 2019/02/23 20:39 UTC NOAA

TAF CYDF 231938Z 2320/2408 27012G22KT P6SM SCT020
TEMPO 2320/2324 P6SM -SHSN BKN020
BECMG 2404/2406 30010KT
RMK NXT FCST BY 240200Z


Example: see airport list